Friday, October 19, 2018, 6:22 PM EDT
Back to Local

KSEG, Selinsgrove Penn Valley Airport

Location: Selinsgrove, PA, United States Lat: 40.817
Local Time: 6:22 PM EDT (22:22 GMT) Lon: -76.867
Time Zone: US/Eastern Elev: 449 ft

Show me the last for .
Show Coded

Time T Td Feel RH Dir Speed Gust Alt SLP Vis Weather Sky Remarks
2018-10-19 17:53 55 37 - 50 Variable 3 - 30.03 30.03 10 CLR None
2018-10-19 16:53 56 36 - 46 180° 9 - 30.04 30.05 10 CLR None
2018-10-19 15:53 57 34 - 41 200° 8 - 30.07 30.08 10 CLR None
2018-10-19 14:53 58 36 - 43 170° 13 - 30.11 30.11 10 CLR None
2018-10-19 13:53 57 35 - 43 190° 8 - 30.15 30.15 10 CLR 6-hr Min Temp (2pm): 30.9°F
6-hr Max Temp (2pm): 57.0°F
2018-10-19 12:53 56 35 - 45 210° 9 - 30.21 30.22 10 CLR None
2018-10-19 11:53 53 35 - 50 170° 10 - 30.26 30.27 10 CLR None
2018-10-19 10:53 49 34 47 56 210° 6 - 30.29 30.29 10 CLR None
2018-10-19 09:53 44 35 41 70 Variable 6 - 30.32 30.32 10 CLR None
2018-10-19 08:53 38 35 - 89 - Calm - 30.32 30.34 10 CLR None
2018-10-19 07:53 31 29 - 92 - Calm - 30.33 30.34 5 BR CLR 6-hr Min Temp (8am): 30.0°F
6-hr Max Temp (8am): 33.1°F
2018-10-19 07:25 30 29 - 95 - Calm - 30.33 - 4 BR FEW001 None
2018-10-19 07:16 30 29 - 95 - Calm - 30.33 - 2 BR SCT001 None
2018-10-19 07:03 31 29 27 92 310° 3 - 30.33 - 1 BR VV001 None
2018-10-19 06:59 31 30 - 96 - Calm - 30.33 - 2 BR SCT001 None
2018-10-19 06:53 31 30 - 96 - Calm - 30.33 30.34 7 CLR None
2018-10-19 06:31 31 30 - 96 - Calm - 30.34 - 6 BR SCT001 None
2018-10-19 05:53 31 30 - 96 - Calm - 30.34 30.34 6 BR BKN002 None
2018-10-19 05:50 30 30 - 100 - Calm - 30.34 - 6 BR BKN002 None
2018-10-19 05:42 31 30 - 96 - Calm - 30.34 - 7 SCT003 None
2018-10-19 04:53 31 30 - 96 - Calm - 30.33 30.34 5 BR CLR None
2018-10-19 03:53 31 30 - 96 - Calm - 30.34 30.35 5 BR CLR None
2018-10-19 02:53 32 31 - 95 - Calm - 30.35 30.36 8 CLR None
2018-10-19 01:53 32 31 - 95 - Calm - 30.36 30.37 10 CLR 6-hr Min Temp (2am): 32.0°F
6-hr Max Temp (2am): 39.9°F
2018-10-19 00:53 33 32 - 95 - Calm - 30.35 30.36 10 CLR 24-hr Min Temp (1am): 33.1°F
24-hr Max Temp (1am): 53.1°F
2018-10-18 23:53 34 33 - 96 - Calm - 30.36 30.37 10 CLR None
2018-10-18 22:53 34 33 - 96 - Calm - 30.37 30.37 10 CLR None
2018-10-18 21:53 37 33 - 85 - Calm - 30.37 30.38 10 CLR None
2018-10-18 20:53 38 34 - 85 - Calm - 30.37 30.37 10 CLR None
2018-10-18 19:53 38 34 - 85 - Calm - 30.37 30.38 10 CLR 6-hr Min Temp (8pm): 37.9°F
6-hr Max Temp (8pm): 53.1°F
2018-10-18 18:53 46 30 - 53 - Calm - 30.37 30.37 10 CLR None

Support USWX by starting your Amazon purchase here.